Terminal Aerodrome Forecast
Issued by NWS

Home | Current Version | Previous Version | Graphics & Text | Print | Product List | Glossary On
Versions: 1 2 3 4 5 6 7 8 9 10 11 12 13 14 15 16 17 18 19 20 21 22 23 24
207
FTUS43 KLOT 211121
TAFMDW
TAF
KMDW 211121Z 2112/2212 01007KT P6SM BKN150
     FM211600 04011KT P6SM SCT200
     FM220100 03006KT P6SM FEW250
     FM220500 33003KT P6SM FEW250=

USA.gov is the U.S. government's official web portal to all federal, state and local government web resources and services.